createdAt,value
2022-11-24T00:00:16.045Z,7.50
2022-11-24T00:05:39.496Z,7.50
2022-11-24T00:10:42.979Z,7.10
2022-11-24T00:15:46.578Z,7.70
2022-11-24T00:20:50.063Z,7.80
2022-11-24T00:25:53.574Z,7.00
2022-11-24T00:30:57.124Z,8.20
2022-11-24T00:36:00.742Z,7.70
2022-11-24T00:41:04.252Z,7.50
2022-11-24T00:46:07.913Z,7.50
2022-11-24T00:51:11.612Z,7.60
2022-11-24T00:56:15.119Z,7.10
2022-11-24T01:01:18.660Z,7.10
2022-11-24T01:06:22.252Z,7.00
2022-11-24T01:11:25.727Z,7.30
2022-11-24T01:16:29.228Z,7.60
2022-11-24T01:21:32.754Z,7.50
2022-11-24T01:26:36.261Z,7.30
2022-11-24T01:31:40.073Z,6.90
2022-11-24T01:36:43.549Z,7.60
2022-11-24T01:41:47.460Z,7.10
2022-11-24T01:46:50.935Z,7.00
2022-11-24T01:51:54.412Z,7.20
2022-11-24T01:56:57.964Z,7.70
2022-11-24T02:02:01.460Z,7.30
2022-11-24T02:07:04.986Z,7.80
2022-11-24T02:12:08.459Z,7.50
2022-11-24T02:17:12.020Z,7.20
2022-11-24T02:22:15.520Z,6.60
2022-11-24T02:27:19.034Z,7.20
2022-11-24T02:32:22.527Z,7.00
2022-11-24T02:37:26.033Z,7.60
2022-11-24T02:42:29.590Z,6.80
2022-11-24T02:47:33.086Z,6.40
2022-11-24T02:52:36.639Z,7.10
2022-11-24T02:57:40.115Z,7.30
2022-11-24T03:02:43.644Z,6.70
2022-11-24T03:07:47.487Z,6.90
2022-11-24T03:12:51.038Z,7.40
2022-11-24T03:17:54.543Z,6.90
2022-11-24T03:22:58.044Z,7.30
2022-11-24T03:28:01.522Z,6.90
2022-11-24T03:33:07.341Z,6.90
2022-11-24T03:38:10.907Z,6.40
2022-11-24T03:43:14.410Z,7.00
2022-11-24T03:48:17.920Z,6.70
2022-11-24T03:53:21.410Z,7.30
2022-11-24T03:58:24.907Z,6.80
2022-11-24T04:03:28.528Z,7.10
2022-11-24T04:08:32.067Z,6.60
2022-11-24T04:13:35.575Z,6.80
2022-11-24T04:18:39.058Z,6.00
2022-11-24T04:23:42.541Z,6.60
2022-11-24T04:28:46.062Z,6.00
2022-11-24T04:33:49.598Z,6.50
2022-11-24T04:39:23.767Z,6.60
2022-11-24T04:44:16.707Z,6.10
2022-11-24T04:49:20.328Z,6.70
2022-11-24T04:54:23.973Z,6.30
2022-11-24T04:59:27.500Z,6.50
2022-11-24T05:04:31.122Z,5.80
2022-11-24T05:09:58.127Z,6.50
2022-11-24T05:14:58.069Z,6.90
2022-11-24T05:20:01.550Z,6.20
2022-11-24T05:25:05.031Z,6.60
2022-11-24T05:30:08.556Z,5.90
2022-11-24T05:35:12.105Z,6.40
2022-11-24T05:40:15.561Z,6.50
2022-11-24T05:45:19.089Z,6.60
2022-11-24T05:50:22.550Z,6.90
2022-11-24T05:55:28.890Z,6.50
2022-11-24T06:00:32.264Z,6.20
2022-11-24T06:05:35.653Z,7.10
2022-11-24T06:10:39.101Z,6.70
2022-11-24T06:15:42.534Z,6.70
2022-11-24T06:21:02.798Z,6.50
2022-11-24T06:26:09.379Z,7.10
2022-11-24T06:31:13.070Z,6.50
2022-11-24T06:36:16.640Z,6.40
2022-11-24T06:41:20.100Z,6.50
2022-11-24T06:46:23.635Z,6.50
2022-11-24T06:51:27.618Z,6.30
2022-11-24T06:56:31.070Z,6.70
2022-11-24T07:01:34.604Z,6.50
2022-11-24T07:06:40.019Z,6.40
2022-11-24T07:11:43.520Z,6.00
2022-11-24T07:16:47.044Z,6.00
2022-11-24T07:21:50.547Z,5.60
2022-11-24T07:26:53.959Z,6.00
2022-11-24T07:32:00.833Z,5.70
2022-11-24T07:37:08.565Z,5.80
2022-11-24T07:42:11.984Z,5.40
2022-11-24T07:47:15.384Z,5.70
2022-11-24T07:52:18.824Z,6.20
2022-11-24T07:57:23.439Z,5.90
2022-11-24T08:02:26.851Z,5.10
2022-11-24T08:07:30.356Z,5.30
2022-11-24T08:12:33.840Z,4.70
2022-11-24T08:17:37.298Z,5.10
2022-11-24T08:22:40.697Z,5.00
2022-11-24T08:27:44.229Z,5.10
2022-11-24T08:32:47.671Z,4.90
2022-11-24T08:37:51.090Z,4.90
2022-11-24T08:42:54.512Z,5.30
2022-11-24T08:47:57.909Z,4.80
2022-11-24T08:53:01.383Z,4.70
2022-11-24T08:58:04.881Z,5.00
2022-11-24T09:03:08.322Z,5.30
2022-11-24T09:08:11.873Z,6.10
2022-11-24T09:13:15.324Z,6.90
2022-11-24T09:18:18.854Z,7.10
2022-11-24T09:23:22.303Z,8.70
2022-11-24T09:28:25.705Z,7.20
2022-11-24T09:33:29.156Z,8.50
2022-11-24T09:38:32.620Z,8.10
2022-11-24T09:43:36.036Z,9.20
2022-11-24T09:48:39.455Z,8.40
2022-11-24T09:53:44.556Z,8.80
2022-11-24T09:58:49.360Z,8.60
2022-11-24T10:03:52.830Z,9.20
2022-11-24T10:08:56.302Z,8.60
2022-11-24T10:13:59.770Z,9.40
2022-11-24T10:19:03.277Z,9.90
2022-11-24T10:24:06.801Z,9.30
2022-11-24T10:29:10.228Z,9.20
2022-11-24T10:34:13.869Z,9.00
2022-11-24T10:39:17.439Z,10.30
2022-11-24T10:44:21.053Z,9.40
2022-11-24T10:49:24.503Z,9.70
2022-11-24T10:54:27.960Z,9.50
2022-11-24T10:59:32.152Z,9.70
2022-11-24T11:04:35.836Z,9.70
2022-11-24T11:09:39.442Z,10.60
2022-11-24T11:14:42.917Z,9.60
2022-11-24T11:20:00.355Z,9.90
2022-11-24T11:25:05.643Z,9.60
2022-11-24T11:35:33.714Z,11.10
2022-11-24T11:40:37.217Z,10.90
2022-11-24T11:45:40.719Z,11.60
2022-11-24T11:51:14.792Z,10.80
2022-11-24T11:56:07.542Z,10.50
2022-11-24T12:01:11.079Z,10.50
2022-11-24T12:06:15.312Z,10.40
2022-11-24T12:11:18.737Z,10.70
2022-11-24T12:16:22.198Z,10.50
2022-11-24T12:21:26.766Z,10.40
2022-11-24T12:26:30.453Z,10.30
2022-11-24T12:31:33.939Z,10.40
2022-11-24T12:36:37.456Z,11.20
2022-11-24T12:41:42.409Z,11.00
2022-11-24T12:46:46.586Z,10.30
2022-11-24T12:51:50.022Z,10.00
2022-11-24T12:56:53.437Z,11.50
2022-11-24T13:01:56.933Z,10.00
2022-11-24T13:07:00.456Z,10.20
2022-11-24T13:12:03.933Z,10.10
2022-11-24T13:17:29.594Z,10.70
2022-11-24T13:22:31.132Z,10.30
2022-11-24T13:27:34.644Z,10.20
2022-11-24T13:32:38.086Z,10.60
2022-11-24T13:37:41.530Z,10.50
2022-11-24T13:42:45.021Z,10.30
2022-11-24T13:47:48.665Z,11.20
2022-11-24T13:52:52.166Z,19.90
2022-11-24T13:57:55.779Z,23.70
2022-11-24T14:02:59.348Z,18.80
2022-11-24T14:08:03.159Z,28.10
2022-11-24T14:13:06.743Z,23.80
2022-11-24T14:18:10.278Z,22.40
2022-11-24T14:23:13.805Z,22.30
2022-11-24T14:28:17.480Z,21.70
2022-11-24T14:33:20.973Z,22.00
2022-11-24T14:38:24.454Z,20.50
2022-11-24T14:43:27.872Z,20.50
2022-11-24T14:48:31.407Z,20.10
2022-11-24T14:53:34.894Z,19.30
2022-11-24T14:58:42.263Z,19.90
2022-11-24T15:03:46.069Z,18.50
2022-11-24T15:08:49.631Z,18.40
2022-11-24T15:13:53.145Z,17.30
2022-11-24T15:18:56.583Z,18.00
2022-11-24T15:24:00.086Z,17.00
2022-11-24T15:29:03.549Z,17.10
2022-11-24T15:34:07.052Z,15.30
2022-11-24T15:39:10.446Z,15.70
2022-11-24T15:44:14.013Z,15.40
2022-11-24T15:49:17.640Z,15.20
2022-11-24T15:54:21.244Z,16.80
2022-11-24T15:59:24.839Z,15.30
2022-11-24T16:04:28.485Z,14.70
2022-11-24T16:09:32.019Z,13.60
2022-11-24T16:14:36.062Z,16.00
2022-11-24T16:19:41.957Z,19.20
2022-11-24T16:24:45.612Z,27.20
2022-11-24T16:29:49.037Z,34.60
2022-11-24T16:34:52.486Z,46.80
2022-11-24T16:39:55.926Z,48.70
